sensor_id;sensor_type;location;lat;lon;timestamp;temperature;humidity
19665;DHT22;9980;51.020;7.772;2023-03-23T00:01:03;13.80;99.90
19665;DHT22;9980;51.020;7.772;2023-03-23T00:03:30;13.80;99.90
19665;DHT22;9980;51.020;7.772;2023-03-23T00:05:59;13.80;99.90
19665;DHT22;9980;51.020;7.772;2023-03-23T00:08:28;13.80;99.90
19665;DHT22;9980;51.020;7.772;2023-03-23T00:10:53;13.80;99.90
19665;DHT22;9980;51.020;7.772;2023-03-23T00:13:27;13.80;99.90
19665;DHT22;9980;51.020;7.772;2023-03-23T00:15:54;13.80;99.90
19665;DHT22;9980;51.020;7.772;2023-03-23T00:18:22;13.70;99.90
19665;DHT22;9980;51.020;7.772;2023-03-23T00:20:54;13.80;99.90
19665;DHT22;9980;51.020;7.772;2023-03-23T00:23:24;13.80;99.90
19665;DHT22;9980;51.020;7.772;2023-03-23T00:25:54;13.70;99.90
19665;DHT22;9980;51.020;7.772;2023-03-23T00:28:25;13.80;99.90
19665;DHT22;9980;51.020;7.772;2023-03-23T00:31:10;13.80;99.90
19665;DHT22;9980;51.020;7.772;2023-03-23T00:33:37;13.70;99.90
19665;DHT22;9980;51.020;7.772;2023-03-23T00:36:04;13.80;99.90
19665;DHT22;9980;51.020;7.772;2023-03-23T00:38:31;13.70;99.90
19665;DHT22;9980;51.020;7.772;2023-03-23T00:40:57;13.70;99.90
19665;DHT22;9980;51.020;7.772;2023-03-23T00:43:28;13.70;99.90
19665;DHT22;9980;51.020;7.772;2023-03-23T00:45:56;13.70;99.90
19665;DHT22;9980;51.020;7.772;2023-03-23T00:48:27;13.70;99.90
19665;DHT22;9980;51.020;7.772;2023-03-23T00:50:55;13.70;99.90
19665;DHT22;9980;51.020;7.772;2023-03-23T00:53:22;13.70;99.90
19665;DHT22;9980;51.020;7.772;2023-03-23T00:55:48;13.70;99.90
19665;DHT22;9980;51.020;7.772;2023-03-23T00:58:15;13.70;99.90
19665;DHT22;9980;51.020;7.772;2023-03-23T01:00:42;13.70;99.90
19665;DHT22;9980;51.020;7.772;2023-03-23T01:03:09;13.70;99.90
19665;DHT22;9980;51.020;7.772;2023-03-23T01:05:39;13.70;99.90
19665;DHT22;9980;51.020;7.772;2023-03-23T01:08:06;13.70;99.90
19665;DHT22;9980;51.020;7.772;2023-03-23T01:10:33;13.70;99.90
19665;DHT22;9980;51.020;7.772;2023-03-23T01:13:00;13.70;99.90
19665;DHT22;9980;51.020;7.772;2023-03-23T01:15:27;13.70;99.90
19665;DHT22;9980;51.020;7.772;2023-03-23T01:17:54;13.70;99.90
19665;DHT22;9980;51.020;7.772;2023-03-23T01:20:21;13.70;99.90
19665;DHT22;9980;51.020;7.772;2023-03-23T01:22:47;13.70;99.90
19665;DHT22;9980;51.020;7.772;2023-03-23T01:25:14;13.70;99.90
19665;DHT22;9980;51.020;7.772;2023-03-23T01:27:40;13.70;99.90
19665;DHT22;9980;51.020;7.772;2023-03-23T01:30:09;13.70;99.90
19665;DHT22;9980;51.020;7.772;2023-03-23T01:32:38;13.70;99.90
19665;DHT22;9980;51.020;7.772;2023-03-23T01:35:04;13.70;99.90
19665;DHT22;9980;51.020;7.772;2023-03-23T01:37:31;13.70;99.90
19665;DHT22;9980;51.020;7.772;2023-03-23T01:39:58;13.70;99.90
19665;DHT22;9980;51.020;7.772;2023-03-23T01:42:26;13.70;99.90
19665;DHT22;9980;51.020;7.772;2023-03-23T01:45:26;13.70;99.90
19665;DHT22;9980;51.020;7.772;2023-03-23T01:48:03;13.70;99.90
19665;DHT22;9980;51.020;7.772;2023-03-23T01:50:37;13.70;99.90
19665;DHT22;9980;51.020;7.772;2023-03-23T01:53:10;13.70;99.90
19665;DHT22;9980;51.020;7.772;2023-03-23T01:55:39;13.70;99.90
19665;DHT22;9980;51.020;7.772;2023-03-23T01:58:08;13.60;99.90
19665;DHT22;9980;51.020;7.772;2023-03-23T02:00:37;13.60;99.90
19665;DHT22;9980;51.020;7.772;2023-03-23T02:03:06;13.70;99.90
19665;DHT22;9980;51.020;7.772;2023-03-23T02:05:38;13.60;99.90
19665;DHT22;9980;51.020;7.772;2023-03-23T02:08:11;13.60;99.90
19665;DHT22;9980;51.020;7.772;2023-03-23T02:10:40;13.60;99.90
19665;DHT22;9980;51.020;7.772;2023-03-23T02:13:09;13.60;99.90
19665;DHT22;9980;51.020;7.772;2023-03-23T02:30:53;13.60;99.90
19665;DHT22;9980;51.020;7.772;2023-03-23T02:36:54;13.60;99.90
19665;DHT22;9980;51.020;7.772;2023-03-23T02:39:32;13.60;99.90
19665;DHT22;9980;51.020;7.772;2023-03-23T02:42:07;13.50;99.90
19665;DHT22;9980;51.020;7.772;2023-03-23T02:44:38;13.50;99.90
19665;DHT22;9980;51.020;7.772;2023-03-23T02:47:10;13.50;99.90
19665;DHT22;9980;51.020;7.772;2023-03-23T02:49:42;13.50;99.90
19665;DHT22;9980;51.020;7.772;2023-03-23T02:52:14;13.50;99.90
19665;DHT22;9980;51.020;7.772;2023-03-23T02:54:46;13.50;99.90
19665;DHT22;9980;51.020;7.772;2023-03-23T02:57:14;13.50;99.90
19665;DHT22;9980;51.020;7.772;2023-03-23T02:59:43;13.50;99.90
19665;DHT22;9980;51.020;7.772;2023-03-23T03:02:22;13.50;99.90
19665;DHT22;9980;51.020;7.772;2023-03-23T03:13:47;13.40;99.90
19665;DHT22;9980;51.020;7.772;2023-03-23T03:16:27;13.40;99.90
19665;DHT22;9980;51.020;7.772;2023-03-23T03:19:11;13.40;99.90
19665;DHT22;9980;51.020;7.772;2023-03-23T03:21:44;13.40;99.90
19665;DHT22;9980;51.020;7.772;2023-03-23T03:24:18;13.40;99.90
19665;DHT22;9980;51.020;7.772;2023-03-23T03:26:51;13.30;99.90
19665;DHT22;9980;51.020;7.772;2023-03-23T03:29:33;13.30;99.90
19665;DHT22;9980;51.020;7.772;2023-03-23T03:32:04;13.30;99.90
19665;DHT22;9980;51.020;7.772;2023-03-23T03:34:34;13.30;99.90
19665;DHT22;9980;51.020;7.772;2023-03-23T03:37:03;13.30;99.90
19665;DHT22;9980;51.020;7.772;2023-03-23T03:39:35;13.30;99.90
19665;DHT22;9980;51.020;7.772;2023-03-23T03:42:04;13.30;99.90
19665;DHT22;9980;51.020;7.772;2023-03-23T03:44:31;13.30;99.90
19665;DHT22;9980;51.020;7.772;2023-03-23T03:46:58;13.20;99.90
19665;DHT22;9980;51.020;7.772;2023-03-23T03:49:24;13.20;99.90
19665;DHT22;9980;51.020;7.772;2023-03-23T03:51:53;13.20;99.90
19665;DHT22;9980;51.020;7.772;2023-03-23T03:54:23;13.20;99.90
19665;DHT22;9980;51.020;7.772;2023-03-23T03:56:49;13.20;99.90
19665;DHT22;9980;51.020;7.772;2023-03-23T03:59:49;13.20;99.90
19665;DHT22;9980;51.020;7.772;2023-03-23T04:02:35;13.20;99.90
19665;DHT22;9980;51.020;7.772;2023-03-23T04:05:01;13.10;99.90
19665;DHT22;9980;51.020;7.772;2023-03-23T04:07:29;13.10;99.90
19665;DHT22;9980;51.020;7.772;2023-03-23T04:09:56;13.10;99.90
19665;DHT22;9980;51.020;7.772;2023-03-23T04:12:22;13.10;99.90
19665;DHT22;9980;51.020;7.772;2023-03-23T04:15:08;13.00;99.90
19665;DHT22;9980;51.020;7.772;2023-03-23T04:17:35;13.00;99.90
19665;DHT22;9980;51.020;7.772;2023-03-23T04:20:02;13.00;99.90
19665;DHT22;9980;51.020;7.772;2023-03-23T04:22:38;13.10;99.90
19665;DHT22;9980;51.020;7.772;2023-03-23T04:25:04;13.00;99.90
19665;DHT22;9980;51.020;7.772;2023-03-23T04:27:35;13.00;99.90
19665;DHT22;9980;51.020;7.772;2023-03-23T04:30:03;13.00;99.90
19665;DHT22;9980;51.020;7.772;2023-03-23T04:32:43;13.00;99.90
19665;DHT22;9980;51.020;7.772;2023-03-23T04:35:13;13.00;99.90
19665;DHT22;9980;51.020;7.772;2023-03-23T04:37:48;13.00;99.90
19665;DHT22;9980;51.020;7.772;2023-03-23T04:40:17;13.00;99.90
19665;DHT22;9980;51.020;7.772;2023-03-23T04:42:52;13.00;99.90
19665;DHT22;9980;51.020;7.772;2023-03-23T04:45:33;13.00;99.90
19665;DHT22;9980;51.020;7.772;2023-03-23T04:48:00;13.00;99.90
19665;DHT22;9980;51.020;7.772;2023-03-23T04:50:39;13.00;99.90
19665;DHT22;9980;51.020;7.772;2023-03-23T04:53:15;13.00;99.90
19665;DHT22;9980;51.020;7.772;2023-03-23T04:55:44;13.00;99.90
19665;DHT22;9980;51.020;7.772;2023-03-23T04:58:13;13.00;99.90
19665;DHT22;9980;51.020;7.772;2023-03-23T05:01:04;13.00;99.90
19665;DHT22;9980;51.020;7.772;2023-03-23T05:03:32;13.00;99.90
19665;DHT22;9980;51.020;7.772;2023-03-23T05:06:02;12.90;99.90
19665;DHT22;9980;51.020;7.772;2023-03-23T05:08:29;12.90;99.90
19665;DHT22;9980;51.020;7.772;2023-03-23T05:10:59;12.90;99.90
19665;DHT22;9980;51.020;7.772;2023-03-23T05:13:31;12.90;99.90
19665;DHT22;9980;51.020;7.772;2023-03-23T05:16:04;12.90;99.90
19665;DHT22;9980;51.020;7.772;2023-03-23T05:18:31;12.90;99.90
19665;DHT22;9980;51.020;7.772;2023-03-23T05:21:00;12.90;99.90
19665;DHT22;9980;51.020;7.772;2023-03-23T05:23:34;12.90;99.90
19665;DHT22;9980;51.020;7.772;2023-03-23T05:26:10;12.90;99.90
19665;DHT22;9980;51.020;7.772;2023-03-23T05:28:36;12.90;99.90
19665;DHT22;9980;51.020;7.772;2023-03-23T05:31:16;12.90;99.90
19665;DHT22;9980;51.020;7.772;2023-03-23T05:33:42;12.90;99.90
19665;DHT22;9980;51.020;7.772;2023-03-23T05:36:26;12.90;99.90
19665;DHT22;9980;51.020;7.772;2023-03-23T05:39:07;12.90;99.90
19665;DHT22;9980;51.020;7.772;2023-03-23T05:41:54;12.90;99.90
19665;DHT22;9980;51.020;7.772;2023-03-23T05:44:23;12.90;99.90
19665;DHT22;9980;51.020;7.772;2023-03-23T05:46:51;12.90;99.90
19665;DHT22;9980;51.020;7.772;2023-03-23T05:49:17;12.90;99.90
19665;DHT22;9980;51.020;7.772;2023-03-23T05:51:46;12.90;99.90
19665;DHT22;9980;51.020;7.772;2023-03-23T05:54:13;12.90;99.90
19665;DHT22;9980;51.020;7.772;2023-03-23T05:56:42;12.90;99.90
19665;DHT22;9980;51.020;7.772;2023-03-23T05:59:27;12.90;99.90
19665;DHT22;9980;51.020;7.772;2023-03-23T06:01:55;12.90;99.90
19665;DHT22;9980;51.020;7.772;2023-03-23T06:04:21;12.90;99.90
19665;DHT22;9980;51.020;7.772;2023-03-23T06:07:05;12.90;99.90
19665;DHT22;9980;51.020;7.772;2023-03-23T06:09:31;12.90;99.90
19665;DHT22;9980;51.020;7.772;2023-03-23T06:12:03;12.90;99.90
19665;DHT22;9980;51.020;7.772;2023-03-23T06:14:48;12.90;99.90
19665;DHT22;9980;51.020;7.772;2023-03-23T06:17:19;12.90;99.90
19665;DHT22;9980;51.020;7.772;2023-03-23T06:19:47;12.90;99.90
19665;DHT22;9980;51.020;7.772;2023-03-23T06:22:16;12.90;99.90
19665;DHT22;9980;51.020;7.772;2023-03-23T06:25:02;13.00;99.90
19665;DHT22;9980;51.020;7.772;2023-03-23T06:27:37;13.00;99.90
19665;DHT22;9980;51.020;7.772;2023-03-23T06:30:04;13.00;99.90
19665;DHT22;9980;51.020;7.772;2023-03-23T06:32:32;13.00;99.90
19665;DHT22;9980;51.020;7.772;2023-03-23T06:34:59;13.00;99.90
19665;DHT22;9980;51.020;7.772;2023-03-23T06:37:44;13.00;99.90
19665;DHT22;9980;51.020;7.772;2023-03-23T06:40:18;13.10;99.90
19665;DHT22;9980;51.020;7.772;2023-03-23T06:42:57;13.10;99.90
19665;DHT22;9980;51.020;7.772;2023-03-23T06:45:42;13.10;99.90
19665;DHT22;9980;51.020;7.772;2023-03-23T06:48:43;13.10;99.90
19665;DHT22;9980;51.020;7.772;2023-03-23T06:51:15;13.10;99.90
19665;DHT22;9980;51.020;7.772;2023-03-23T06:53:45;13.20;99.90
19665;DHT22;9980;51.020;7.772;2023-03-23T06:56:12;13.20;99.90
19665;DHT22;9980;51.020;7.772;2023-03-23T06:58:40;13.20;99.90
19665;DHT22;9980;51.020;7.772;2023-03-23T07:01:11;13.30;99.90
19665;DHT22;9980;51.020;7.772;2023-03-23T07:03:41;13.30;99.90
19665;DHT22;9980;51.020;7.772;2023-03-23T07:06:10;13.40;99.90
19665;DHT22;9980;51.020;7.772;2023-03-23T07:08:44;13.40;99.90
19665;DHT22;9980;51.020;7.772;2023-03-23T07:11:15;13.50;99.90
19665;DHT22;9980;51.020;7.772;2023-03-23T07:13:41;13.50;99.90
19665;DHT22;9980;51.020;7.772;2023-03-23T07:16:07;13.60;99.90
19665;DHT22;9980;51.020;7.772;2023-03-23T07:18:34;13.60;99.90
19665;DHT22;9980;51.020;7.772;2023-03-23T07:21:02;13.70;99.90
19665;DHT22;9980;51.020;7.772;2023-03-23T07:23:31;13.70;99.90
19665;DHT22;9980;51.020;7.772;2023-03-23T07:26:01;13.80;99.90
19665;DHT22;9980;51.020;7.772;2023-03-23T07:28:34;13.80;99.90
19665;DHT22;9980;51.020;7.772;2023-03-23T07:31:10;13.90;99.90
19665;DHT22;9980;51.020;7.772;2023-03-23T07:33:36;13.90;99.90
19665;DHT22;9980;51.020;7.772;2023-03-23T07:36:04;13.90;99.90
19665;DHT22;9980;51.020;7.772;2023-03-23T07:38:31;14.00;99.90
19665;DHT22;9980;51.020;7.772;2023-03-23T07:40:58;14.00;99.90
19665;DHT22;9980;51.020;7.772;2023-03-23T07:43:24;14.00;99.90
19665;DHT22;9980;51.020;7.772;2023-03-23T07:46:08;14.00;99.90
19665;DHT22;9980;51.020;7.772;2023-03-23T07:48:53;14.10;99.90
19665;DHT22;9980;51.020;7.772;2023-03-23T07:51:23;14.10;99.90
19665;DHT22;9980;51.020;7.772;2023-03-23T07:53:50;14.20;99.90
19665;DHT22;9980;51.020;7.772;2023-03-23T07:56:37;14.20;99.90
19665;DHT22;9980;51.020;7.772;2023-03-23T07:59:19;14.20;99.90
19665;DHT22;9980;51.020;7.772;2023-03-23T08:01:46;14.30;99.90
19665;DHT22;9980;51.020;7.772;2023-03-23T08:04:27;14.30;99.90
19665;DHT22;9980;51.020;7.772;2023-03-23T08:07:11;14.30;99.90
19665;DHT22;9980;51.020;7.772;2023-03-23T08:09:50;14.40;99.90
19665;DHT22;9980;51.020;7.772;2023-03-23T08:12:22;14.40;99.90
19665;DHT22;9980;51.020;7.772;2023-03-23T08:15:27;14.40;99.90
19665;DHT22;9980;51.020;7.772;2023-03-23T08:18:22;14.40;99.90
19665;DHT22;9980;51.020;7.772;2023-03-23T08:21:12;14.50;99.90
19665;DHT22;9980;51.020;7.772;2023-03-23T08:24:13;14.50;99.90
19665;DHT22;9980;51.020;7.772;2023-03-23T08:26:50;14.50;99.90
19665;DHT22;9980;51.020;7.772;2023-03-23T08:29:34;14.60;99.90
19665;DHT22;9980;51.020;7.772;2023-03-23T08:32:19;14.60;99.90
19665;DHT22;9980;51.020;7.772;2023-03-23T08:35:08;14.70;99.90
19665;DHT22;9980;51.020;7.772;2023-03-23T08:37:55;14.70;99.90
19665;DHT22;9980;51.020;7.772;2023-03-23T08:40:46;14.80;99.90
19665;DHT22;9980;51.020;7.772;2023-03-23T08:43:32;14.80;99.90
19665;DHT22;9980;51.020;7.772;2023-03-23T08:46:16;14.90;99.90
19665;DHT22;9980;51.020;7.772;2023-03-23T08:49:03;14.90;99.90
19665;DHT22;9980;51.020;7.772;2023-03-23T08:51:40;15.00;99.90
19665;DHT22;9980;51.020;7.772;2023-03-23T08:54:32;15.00;99.90
19665;DHT22;9980;51.020;7.772;2023-03-23T08:57:35;15.10;99.90
19665;DHT22;9980;51.020;7.772;2023-03-23T09:00:21;15.10;99.90
19665;DHT22;9980;51.020;7.772;2023-03-23T09:03:10;15.10;99.90
19665;DHT22;9980;51.020;7.772;2023-03-23T09:06:03;15.20;99.90
19665;DHT22;9980;51.020;7.772;2023-03-23T09:08:42;15.20;99.90
19665;DHT22;9980;51.020;7.772;2023-03-23T09:11:10;15.20;99.90
19665;DHT22;9980;51.020;7.772;2023-03-23T09:13:37;15.30;99.90
19665;DHT22;9980;51.020;7.772;2023-03-23T09:16:04;15.30;99.90
19665;DHT22;9980;51.020;7.772;2023-03-23T09:18:32;15.30;99.90
19665;DHT22;9980;51.020;7.772;2023-03-23T09:20:59;15.30;99.90
19665;DHT22;9980;51.020;7.772;2023-03-23T09:23:25;15.40;99.90
19665;DHT22;9980;51.020;7.772;2023-03-23T09:25:52;15.40;99.90
19665;DHT22;9980;51.020;7.772;2023-03-23T09:28:19;15.40;99.90
19665;DHT22;9980;51.020;7.772;2023-03-23T09:30:45;15.40;99.90
19665;DHT22;9980;51.020;7.772;2023-03-23T09:33:13;15.50;99.90
19665;DHT22;9980;51.020;7.772;2023-03-23T09:35:40;15.50;99.90
19665;DHT22;9980;51.020;7.772;2023-03-23T09:38:09;15.50;99.90
19665;DHT22;9980;51.020;7.772;2023-03-23T09:40:48;15.50;99.90
19665;DHT22;9980;51.020;7.772;2023-03-23T09:49:32;15.70;99.90
19665;DHT22;9980;51.020;7.772;2023-03-23T09:52:14;15.70;99.90
19665;DHT22;9980;51.020;7.772;2023-03-23T09:54:44;15.80;99.90
19665;DHT22;9980;51.020;7.772;2023-03-23T09:57:28;15.80;99.90
19665;DHT22;9980;51.020;7.772;2023-03-23T10:03:16;15.90;99.90
19665;DHT22;9980;51.020;7.772;2023-03-23T10:05:49;15.90;99.90
19665;DHT22;9980;51.020;7.772;2023-03-23T10:08:22;15.90;99.90
19665;DHT22;9980;51.020;7.772;2023-03-23T10:11:05;15.90;99.90
19665;DHT22;9980;51.020;7.772;2023-03-23T10:16:10;16.00;99.90
19665;DHT22;9980;51.020;7.772;2023-03-23T10:21:41;16.10;99.60
19665;DHT22;9980;51.020;7.772;2023-03-23T10:24:20;16.10;99.60
19665;DHT22;9980;51.020;7.772;2023-03-23T10:27:13;16.10;99.40
19665;DHT22;9980;51.020;7.772;2023-03-23T10:29:52;16.10;99.50
19665;DHT22;9980;51.020;7.772;2023-03-23T10:33:22;16.10;99.60
19665;DHT22;9980;51.020;7.772;2023-03-23T10:35:57;16.10;99.50
19665;DHT22;9980;51.020;7.772;2023-03-23T10:38:35;16.20;99.50
19665;DHT22;9980;51.020;7.772;2023-03-23T10:41:15;16.20;99.90
19665;DHT22;9980;51.020;7.772;2023-03-23T10:43:44;16.20;99.90
19665;DHT22;9980;51.020;7.772;2023-03-23T10:46:37;16.30;99.90
19665;DHT22;9980;51.020;7.772;2023-03-23T10:49:08;16.30;99.90
19665;DHT22;9980;51.020;7.772;2023-03-23T10:51:41;16.30;99.90
19665;DHT22;9980;51.020;7.772;2023-03-23T10:54:10;16.30;99.90
19665;DHT22;9980;51.020;7.772;2023-03-23T10:56:42;16.30;99.90
19665;DHT22;9980;51.020;7.772;2023-03-23T10:59:21;16.30;99.90
19665;DHT22;9980;51.020;7.772;2023-03-23T11:01:55;16.30;99.90
19665;DHT22;9980;51.020;7.772;2023-03-23T11:04:24;16.20;99.90
19665;DHT22;9980;51.020;7.772;2023-03-23T11:06:53;16.20;99.90
19665;DHT22;9980;51.020;7.772;2023-03-23T11:09:37;16.20;99.90
19665;DHT22;9980;51.020;7.772;2023-03-23T11:12:19;16.20;99.90
19665;DHT22;9980;51.020;7.772;2023-03-23T11:14:45;16.20;99.90
19665;DHT22;9980;51.020;7.772;2023-03-23T11:17:24;16.20;99.90
19665;DHT22;9980;51.020;7.772;2023-03-23T11:19:52;16.20;99.90
19665;DHT22;9980;51.020;7.772;2023-03-23T11:22:31;16.30;99.90
19665;DHT22;9980;51.020;7.772;2023-03-23T11:25:03;16.30;99.90
19665;DHT22;9980;51.020;7.772;2023-03-23T11:27:32;16.30;99.90
19665;DHT22;9980;51.020;7.772;2023-03-23T11:30:10;16.30;99.90
19665;DHT22;9980;51.020;7.772;2023-03-23T11:32:44;16.30;99.90
19665;DHT22;9980;51.020;7.772;2023-03-23T11:35:27;16.20;99.90
19665;DHT22;9980;51.020;7.772;2023-03-23T11:37:58;16.20;99.90
19665;DHT22;9980;51.020;7.772;2023-03-23T11:40:27;16.20;99.90
19665;DHT22;9980;51.020;7.772;2023-03-23T11:43:07;16.20;99.90
19665;DHT22;9980;51.020;7.772;2023-03-23T11:45:38;16.20;99.90
19665;DHT22;9980;51.020;7.772;2023-03-23T11:50:54;16.20;99.90
19665;DHT22;9980;51.020;7.772;2023-03-23T11:56:33;16.20;99.90
19665;DHT22;9980;51.020;7.772;2023-03-23T11:59:02;16.30;99.90
19665;DHT22;9980;51.020;7.772;2023-03-23T12:01:47;16.30;99.90
19665;DHT22;9980;51.020;7.772;2023-03-23T12:04:33;16.30;99.90
19665;DHT22;9980;51.020;7.772;2023-03-23T12:10:12;16.50;99.90
19665;DHT22;9980;51.020;7.772;2023-03-23T12:22:30;16.70;99.80
19665;DHT22;9980;51.020;7.772;2023-03-23T12:37:30;16.70;99.30
19665;DHT22;9980;51.020;7.772;2023-03-23T12:48:21;16.60;98.60
19665;DHT22;9980;51.020;7.772;2023-03-23T12:53:58;16.60;98.60
19665;DHT22;9980;51.020;7.772;2023-03-23T12:56:58;16.50;98.40
19665;DHT22;9980;51.020;7.772;2023-03-23T12:59:55;16.50;98.80
19665;DHT22;9980;51.020;7.772;2023-03-23T13:02:49;16.40;99.00
19665;DHT22;9980;51.020;7.772;2023-03-23T13:05:29;16.40;99.00
19665;DHT22;9980;51.020;7.772;2023-03-23T13:08:11;16.50;98.90
19665;DHT22;9980;51.020;7.772;2023-03-23T13:10:46;16.40;98.80
19665;DHT22;9980;51.020;7.772;2023-03-23T13:13:18;16.50;98.80
19665;DHT22;9980;51.020;7.772;2023-03-23T13:18:44;16.50;98.80
19665;DHT22;9980;51.020;7.772;2023-03-23T13:21:31;16.60;98.70
19665;DHT22;9980;51.020;7.772;2023-03-23T13:24:04;16.60;99.00
19665;DHT22;9980;51.020;7.772;2023-03-23T13:26:39;16.60;98.90
19665;DHT22;9980;51.020;7.772;2023-03-23T13:29:14;16.70;98.70
19665;DHT22;9980;51.020;7.772;2023-03-23T13:31:47;16.70;98.40
19665;DHT22;9980;51.020;7.772;2023-03-23T13:34:26;16.70;98.40
19665;DHT22;9980;51.020;7.772;2023-03-23T13:37:01;16.70;98.20
19665;DHT22;9980;51.020;7.772;2023-03-23T13:40:42;16.70;98.30
19665;DHT22;9980;51.020;7.772;2023-03-23T13:42:54;16.70;98.10
19665;DHT22;9980;51.020;7.772;2023-03-23T13:48:16;16.70;98.10
19665;DHT22;9980;51.020;7.772;2023-03-23T13:50:59;16.60;98.00
19665;DHT22;9980;51.020;7.772;2023-03-23T13:53:31;16.60;98.00
19665;DHT22;9980;51.020;7.772;2023-03-23T13:56:21;16.60;98.10
19665;DHT22;9980;51.020;7.772;2023-03-23T13:59:12;16.60;98.40
19665;DHT22;9980;51.020;7.772;2023-03-23T14:01:40;16.50;98.50
19665;DHT22;9980;51.020;7.772;2023-03-23T14:04:16;16.50;98.70
19665;DHT22;9980;51.020;7.772;2023-03-23T14:06:46;16.50;98.80
19665;DHT22;9980;51.020;7.772;2023-03-23T14:09:33;16.40;98.80
19665;DHT22;9980;51.020;7.772;2023-03-23T14:12:25;16.40;99.00
19665;DHT22;9980;51.020;7.772;2023-03-23T14:15:00;16.30;99.00
19665;DHT22;9980;51.020;7.772;2023-03-23T14:17:33;16.30;98.90
19665;DHT22;9980;51.020;7.772;2023-03-23T14:20:05;16.30;98.90
19665;DHT22;9980;51.020;7.772;2023-03-23T14:22:37;16.30;99.00
19665;DHT22;9980;51.020;7.772;2023-03-23T14:25:14;16.30;98.80
19665;DHT22;9980;51.020;7.772;2023-03-23T14:27:41;16.20;98.90
19665;DHT22;9980;51.020;7.772;2023-03-23T14:30:18;16.20;99.10
19665;DHT22;9980;51.020;7.772;2023-03-23T14:32:46;16.20;98.90
19665;DHT22;9980;51.020;7.772;2023-03-23T14:35:26;16.20;98.80
19665;DHT22;9980;51.020;7.772;2023-03-23T14:37:55;16.10;98.60
19665;DHT22;9980;51.020;7.772;2023-03-23T14:40:23;16.10;98.60
19665;DHT22;9980;51.020;7.772;2023-03-23T14:42:52;16.10;98.70
19665;DHT22;9980;51.020;7.772;2023-03-23T14:45:21;16.10;98.80
19665;DHT22;9980;51.020;7.772;2023-03-23T14:47:57;16.10;98.70
19665;DHT22;9980;51.020;7.772;2023-03-23T14:50:41;16.10;98.70
19665;DHT22;9980;51.020;7.772;2023-03-23T14:53:30;16.10;98.70
19665;DHT22;9980;51.020;7.772;2023-03-23T14:56:14;16.10;98.50
19665;DHT22;9980;51.020;7.772;2023-03-23T14:58:49;16.10;98.50
19665;DHT22;9980;51.020;7.772;2023-03-23T15:01:23;16.00;98.50
19665;DHT22;9980;51.020;7.772;2023-03-23T15:03:57;16.10;98.50
19665;DHT22;9980;51.020;7.772;2023-03-23T15:06:29;16.00;98.30
19665;DHT22;9980;51.020;7.772;2023-03-23T15:09:05;16.00;98.50
19665;DHT22;9980;51.020;7.772;2023-03-23T15:11:36;16.00;98.50
19665;DHT22;9980;51.020;7.772;2023-03-23T15:14:20;16.00;98.60
19665;DHT22;9980;51.020;7.772;2023-03-23T15:16:50;16.00;98.70
19665;DHT22;9980;51.020;7.772;2023-03-23T15:19:27;16.00;98.70
19665;DHT22;9980;51.020;7.772;2023-03-23T15:22:05;16.00;98.90
19665;DHT22;9980;51.020;7.772;2023-03-23T15:24:40;15.90;98.60
19665;DHT22;9980;51.020;7.772;2023-03-23T15:29:58;15.90;98.80
19665;DHT22;9980;51.020;7.772;2023-03-23T15:32:44;15.90;98.80
19665;DHT22;9980;51.020;7.772;2023-03-23T15:35:14;15.90;98.80
19665;DHT22;9980;51.020;7.772;2023-03-23T15:37:48;15.90;98.60
19665;DHT22;9980;51.020;7.772;2023-03-23T15:40:19;15.90;98.80
19665;DHT22;9980;51.020;7.772;2023-03-23T15:43:05;15.90;99.00
19665;DHT22;9980;51.020;7.772;2023-03-23T15:45:32;15.90;98.90
19665;DHT22;9980;51.020;7.772;2023-03-23T15:48:10;16.00;98.90
19665;DHT22;9980;51.020;7.772;2023-03-23T15:50:39;15.90;98.70
19665;DHT22;9980;51.020;7.772;2023-03-23T15:53:33;15.90;98.90
19665;DHT22;9980;51.020;7.772;2023-03-23T15:56:03;15.90;99.10
19665;DHT22;9980;51.020;7.772;2023-03-23T15:58:32;15.90;99.10
19665;DHT22;9980;51.020;7.772;2023-03-23T16:01:03;15.90;99.00
19665;DHT22;9980;51.020;7.772;2023-03-23T16:03:47;15.90;98.90
19665;DHT22;9980;51.020;7.772;2023-03-23T16:06:16;15.90;98.80
19665;DHT22;9980;51.020;7.772;2023-03-23T16:08:52;15.90;98.80
19665;DHT22;9980;51.020;7.772;2023-03-23T16:11:22;15.90;98.70
19665;DHT22;9980;51.020;7.772;2023-03-23T16:13:51;15.90;98.90
19665;DHT22;9980;51.020;7.772;2023-03-23T16:16:42;15.90;98.90
19665;DHT22;9980;51.020;7.772;2023-03-23T16:19:16;15.90;98.90
19665;DHT22;9980;51.020;7.772;2023-03-23T16:21:43;15.90;99.00
19665;DHT22;9980;51.020;7.772;2023-03-23T16:24:10;15.90;99.00
19665;DHT22;9980;51.020;7.772;2023-03-23T16:26:37;16.00;98.80
19665;DHT22;9980;51.020;7.772;2023-03-23T16:29:13;16.00;99.00
19665;DHT22;9980;51.020;7.772;2023-03-23T16:32:01;16.00;98.90
19665;DHT22;9980;51.020;7.772;2023-03-23T16:34:28;16.10;99.00
19665;DHT22;9980;51.020;7.772;2023-03-23T16:36:59;16.10;98.70
19665;DHT22;9980;51.020;7.772;2023-03-23T16:39:26;16.10;98.70
19665;DHT22;9980;51.020;7.772;2023-03-23T16:41:53;16.20;98.70
19665;DHT22;9980;51.020;7.772;2023-03-23T16:44:20;16.20;98.60
19665;DHT22;9980;51.020;7.772;2023-03-23T16:46:47;16.20;98.60
19665;DHT22;9980;51.020;7.772;2023-03-23T16:49:13;16.20;98.40
19665;DHT22;9980;51.020;7.772;2023-03-23T16:51:40;16.20;98.30
19665;DHT22;9980;51.020;7.772;2023-03-23T16:54:09;16.20;98.40
19665;DHT22;9980;51.020;7.772;2023-03-23T16:56:36;16.20;98.30
19665;DHT22;9980;51.020;7.772;2023-03-23T16:59:03;16.20;98.20
19665;DHT22;9980;51.020;7.772;2023-03-23T17:01:30;16.20;98.20
19665;DHT22;9980;51.020;7.772;2023-03-23T17:03:57;16.20;98.10
19665;DHT22;9980;51.020;7.772;2023-03-23T17:06:24;16.10;98.10
19665;DHT22;9980;51.020;7.772;2023-03-23T17:08:51;16.10;98.20
19665;DHT22;9980;51.020;7.772;2023-03-23T17:11:18;16.10;98.20
19665;DHT22;9980;51.020;7.772;2023-03-23T17:13:45;16.10;98.20
19665;DHT22;9980;51.020;7.772;2023-03-23T17:16:12;16.00;98.20
19665;DHT22;9980;51.020;7.772;2023-03-23T17:18:39;16.00;98.20
19665;DHT22;9980;51.020;7.772;2023-03-23T17:21:06;16.00;98.20
19665;DHT22;9980;51.020;7.772;2023-03-23T17:23:33;15.90;98.20
19665;DHT22;9980;51.020;7.772;2023-03-23T17:26:00;15.90;98.20
19665;DHT22;9980;51.020;7.772;2023-03-23T17:28:27;15.90;98.30
19665;DHT22;9980;51.020;7.772;2023-03-23T17:30:54;15.90;98.20
19665;DHT22;9980;51.020;7.772;2023-03-23T17:33:21;15.80;98.20
19665;DHT22;9980;51.020;7.772;2023-03-23T17:35:48;15.80;98.20
19665;DHT22;9980;51.020;7.772;2023-03-23T17:38:18;15.70;98.10
19665;DHT22;9980;51.020;7.772;2023-03-23T17:40:45;15.70;98.00
19665;DHT22;9980;51.020;7.772;2023-03-23T17:43:12;15.60;98.00
19665;DHT22;9980;51.020;7.772;2023-03-23T17:45:40;15.60;98.00
19665;DHT22;9980;51.020;7.772;2023-03-23T17:48:09;15.60;98.00
19665;DHT22;9980;51.020;7.772;2023-03-23T17:50:36;15.50;98.00
19665;DHT22;9980;51.020;7.772;2023-03-23T17:53:03;15.50;98.10
19665;DHT22;9980;51.020;7.772;2023-03-23T17:55:30;15.40;98.00
19665;DHT22;9980;51.020;7.772;2023-03-23T17:57:57;15.30;98.10
19665;DHT22;9980;51.020;7.772;2023-03-23T18:00:24;15.20;98.10